createdAt,value
2022-11-26T00:02:23.027Z,14.73
2022-11-26T00:04:52.795Z,10.83
2022-11-26T00:07:26.081Z,12.87
2022-11-26T00:09:55.108Z,8.47
2022-11-26T00:12:27.532Z,15.67
2022-11-26T00:14:56.481Z,14.20
2022-11-26T00:17:24.940Z,8.97
2022-11-26T00:19:53.222Z,11.63
2022-11-26T00:22:27.702Z,8.07
2022-11-26T00:24:57.049Z,8.80
2022-11-26T00:27:29.182Z,8.67
2022-11-26T00:29:58.510Z,9.73
2022-11-26T00:32:27.699Z,8.13
2022-11-26T00:34:56.094Z,9.37
2022-11-26T00:37:29.685Z,13.33
2022-11-26T00:39:59.046Z,9.23
2022-11-26T00:42:28.791Z,8.97
2022-11-26T00:44:57.170Z,9.27
2022-11-26T00:47:25.580Z,8.70
2022-11-26T00:49:53.863Z,7.57
2022-11-26T00:52:34.014Z,10.07
2022-11-26T00:55:11.245Z,7.73
2022-11-26T00:57:40.989Z,7.33
2022-11-26T01:00:20.438Z,6.17
2022-11-26T01:02:49.107Z,6.80
2022-11-26T01:05:18.252Z,8.07
2022-11-26T01:07:47.286Z,12.00
2022-11-26T01:10:21.095Z,7.83
2022-11-26T01:12:52.018Z,9.63
2022-11-26T01:15:23.644Z,7.03
2022-11-26T01:17:53.824Z,8.60
2022-11-26T01:20:27.685Z,8.40
2022-11-26T01:22:57.880Z,11.13
2022-11-26T01:25:27.735Z,8.53
2022-11-26T01:27:57.463Z,6.83
2022-11-26T01:30:28.635Z,7.53
2022-11-26T01:32:56.983Z,8.63
2022-11-26T01:35:25.205Z,8.93
2022-11-26T01:37:53.484Z,8.70
2022-11-26T01:41:11.752Z,8.47
2022-11-26T01:43:44.413Z,8.80
2022-11-26T01:46:16.822Z,8.67
2022-11-26T01:48:46.443Z,9.53
2022-11-26T01:51:17.193Z,8.47
2022-11-26T01:53:51.220Z,7.80
2022-11-26T01:56:28.376Z,9.47
2022-11-26T01:59:04.567Z,6.53
2022-11-26T02:01:34.314Z,8.17
2022-11-26T02:04:14.551Z,9.80
2022-11-26T02:06:45.316Z,7.80
2022-11-26T02:09:14.923Z,7.63
2022-11-26T02:11:43.658Z,9.73
2022-11-26T02:14:17.155Z,8.93
2022-11-26T02:17:19.439Z,9.33
2022-11-26T02:20:26.255Z,7.23
2022-11-26T02:23:48.091Z,8.40
2022-11-26T02:26:54.172Z,9.37
2022-11-26T02:29:30.948Z,7.93
2022-11-26T02:32:07.600Z,8.17
2022-11-26T02:34:41.850Z,8.57
2022-11-26T02:37:16.238Z,9.83
2022-11-26T02:39:44.574Z,10.87
2022-11-26T02:42:27.560Z,10.90
2022-11-26T02:44:59.237Z,8.67
2022-11-26T02:47:30.941Z,11.10
2022-11-26T02:50:04.194Z,10.70
2022-11-26T02:52:34.889Z,9.47
2022-11-26T02:55:07.579Z,10.93
2022-11-26T02:57:43.490Z,10.50
2022-11-26T03:00:13.310Z,6.50
2022-11-26T03:02:48.269Z,7.07
2022-11-26T03:05:19.166Z,9.60
2022-11-26T03:07:49.488Z,7.47
2022-11-26T03:10:20.232Z,12.70
2022-11-26T03:12:48.884Z,10.53
2022-11-26T03:15:17.351Z,11.03
2022-11-26T03:17:47.045Z,8.57
2022-11-26T03:20:15.710Z,7.40
2022-11-26T03:22:44.539Z,8.03
2022-11-26T03:25:13.182Z,8.10
2022-11-26T03:27:41.422Z,8.13
2022-11-26T03:30:11.211Z,9.27
2022-11-26T03:32:39.555Z,10.77
2022-11-26T03:35:10.405Z,8.13
2022-11-26T03:37:38.784Z,6.90
2022-11-26T03:40:10.068Z,11.97
2022-11-26T03:42:38.738Z,9.30
2022-11-26T03:45:08.332Z,12.57
2022-11-26T03:47:36.632Z,7.90
2022-11-26T03:50:05.750Z,12.27
2022-11-26T03:52:35.490Z,8.33
2022-11-26T03:55:03.816Z,9.27
2022-11-26T03:57:32.147Z,9.10
2022-11-26T04:00:00.386Z,8.57
2022-11-26T04:02:29.490Z,7.87
2022-11-26T04:04:57.672Z,9.53
2022-11-26T04:07:25.947Z,10.83
2022-11-26T04:09:55.598Z,7.27
2022-11-26T04:12:23.798Z,7.90
2022-11-26T04:14:52.050Z,7.33
2022-11-26T04:17:20.247Z,7.23
2022-11-26T04:19:48.515Z,10.57
2022-11-26T04:22:16.804Z,8.60
2022-11-26T04:24:45.064Z,8.50
2022-11-26T04:27:14.691Z,8.10
2022-11-26T04:29:42.944Z,6.47
2022-11-26T04:32:11.200Z,7.80
2022-11-26T04:34:39.767Z,12.23
2022-11-26T04:37:08.218Z,7.47
2022-11-26T04:39:37.475Z,8.17
2022-11-26T04:42:06.015Z,8.97
2022-11-26T04:44:35.993Z,9.30
2022-11-26T04:47:04.444Z,9.63
2022-11-26T04:49:32.729Z,8.43
2022-11-26T04:52:00.983Z,9.27
2022-11-26T04:54:29.223Z,7.83
2022-11-26T04:56:57.504Z,10.90
2022-11-26T04:59:25.851Z,10.80
2022-11-26T05:01:55.495Z,8.90
2022-11-26T05:04:23.915Z,6.20
2022-11-26T05:06:52.250Z,9.13
2022-11-26T05:09:20.544Z,10.90
2022-11-26T05:11:48.908Z,11.03
2022-11-26T05:14:17.387Z,9.27
2022-11-26T05:16:45.747Z,10.43
2022-11-26T05:19:15.460Z,8.00
2022-11-26T05:21:44.053Z,7.23
2022-11-26T05:24:12.324Z,13.20
2022-11-26T05:26:40.564Z,9.13
2022-11-26T05:29:08.828Z,13.17
2022-11-26T05:31:37.202Z,11.57
2022-11-26T05:34:05.606Z,6.83
2022-11-26T05:36:35.241Z,9.53
2022-11-26T05:39:03.614Z,7.53
2022-11-26T05:41:31.892Z,7.37
2022-11-26T05:44:00.130Z,6.00
2022-11-26T05:46:28.558Z,8.10
2022-11-26T05:48:56.847Z,7.83
2022-11-26T05:51:25.226Z,7.00
2022-11-26T05:53:54.811Z,11.20
2022-11-26T05:56:23.074Z,8.63
2022-11-26T05:58:51.445Z,8.77
2022-11-26T06:01:19.831Z,7.90
2022-11-26T06:03:48.245Z,8.43
2022-11-26T06:06:16.566Z,7.63
2022-11-26T06:08:44.833Z,7.37
2022-11-26T06:11:14.574Z,10.10
2022-11-26T06:13:42.908Z,9.90
2022-11-26T06:16:11.545Z,10.50
2022-11-26T06:18:40.534Z,9.33
2022-11-26T06:21:09.406Z,5.77
2022-11-26T06:23:37.767Z,7.13
2022-11-26T06:26:11.314Z,12.23
2022-11-26T06:28:41.345Z,9.30
2022-11-26T06:31:11.046Z,9.60
2022-11-26T06:33:39.430Z,9.47
2022-11-26T06:36:08.115Z,7.90
2022-11-26T06:38:36.399Z,9.30
2022-11-26T06:41:08.408Z,9.90
2022-11-26T06:43:37.480Z,11.87
2022-11-26T06:46:10.037Z,10.63
2022-11-26T06:48:39.490Z,9.27
2022-11-26T06:51:09.388Z,9.20
2022-11-26T06:53:37.993Z,11.07
2022-11-26T06:56:14.805Z,7.80
2022-11-26T06:58:46.842Z,7.07
2022-11-26T07:01:20.791Z,10.27
2022-11-26T07:03:49.413Z,7.93
2022-11-26T07:06:20.267Z,12.27
2022-11-26T07:08:49.172Z,9.77
2022-11-26T07:11:18.082Z,12.23
2022-11-26T07:13:46.641Z,12.30
2022-11-26T07:16:16.972Z,10.10
2022-11-26T07:18:49.984Z,9.60
2022-11-26T07:21:18.440Z,10.90
2022-11-26T07:23:46.985Z,9.37
2022-11-26T07:26:16.777Z,12.00
2022-11-26T07:28:47.166Z,8.93
2022-11-26T07:31:19.867Z,9.17
2022-11-26T07:33:48.998Z,14.40
2022-11-26T07:36:23.199Z,10.77
2022-11-26T07:38:52.047Z,11.77
2022-11-26T07:41:21.297Z,9.67
2022-11-26T07:43:49.891Z,13.23
2022-11-26T07:46:23.270Z,10.77
2022-11-26T07:48:52.410Z,9.53
2022-11-26T07:51:23.972Z,9.37
2022-11-26T07:53:53.132Z,11.43
2022-11-26T07:56:21.725Z,10.77
2022-11-26T07:58:50.199Z,9.57
2022-11-26T08:01:27.063Z,10.33
2022-11-26T08:03:55.639Z,9.20
2022-11-26T08:06:27.895Z,12.57
2022-11-26T08:08:56.282Z,11.27
2022-11-26T08:11:26.874Z,9.27
2022-11-26T08:13:56.401Z,9.67
2022-11-26T08:16:28.788Z,9.63
2022-11-26T08:18:59.446Z,10.97
2022-11-26T08:21:28.201Z,12.80
2022-11-26T08:23:56.942Z,9.57
2022-11-26T08:26:35.091Z,13.03
2022-11-26T08:29:04.568Z,8.43
2022-11-26T08:31:34.967Z,10.90
2022-11-26T08:34:04.413Z,7.80
2022-11-26T08:36:33.173Z,13.53
2022-11-26T08:39:02.370Z,8.63
2022-11-26T08:41:30.638Z,12.57
2022-11-26T08:44:07.854Z,8.57
2022-11-26T08:46:39.154Z,8.90
2022-11-26T08:49:10.515Z,6.57
2022-11-26T08:51:39.071Z,9.23
2022-11-26T08:54:07.447Z,7.33
2022-11-26T08:56:35.745Z,8.70
2022-11-26T08:59:04.393Z,10.50
2022-11-26T09:01:34.770Z,7.17
2022-11-26T09:04:05.942Z,7.90
2022-11-26T09:06:37.733Z,7.40
2022-11-26T09:09:17.694Z,9.80
2022-11-26T09:11:50.149Z,8.70
2022-11-26T09:14:21.140Z,13.17
2022-11-26T09:16:49.470Z,12.60
2022-11-26T09:19:20.053Z,10.30
2022-11-26T09:21:48.985Z,7.63
2022-11-26T09:24:18.423Z,11.20
2022-11-26T09:26:48.352Z,10.87
2022-11-26T09:29:19.663Z,8.37
2022-11-26T09:32:21.311Z,9.50
2022-11-26T09:34:39.111Z,9.37
2022-11-26T09:37:08.000Z,12.13
2022-11-26T09:39:36.346Z,11.23
2022-11-26T09:42:09.107Z,11.93
2022-11-26T09:44:56.791Z,11.07
2022-11-26T09:47:27.881Z,9.57
2022-11-26T09:50:09.234Z,11.43
2022-11-26T09:52:42.640Z,9.20
2022-11-26T09:55:19.951Z,10.67
2022-11-26T09:57:59.228Z,12.27
2022-11-26T10:00:30.667Z,11.33
2022-11-26T10:03:00.080Z,11.67
2022-11-26T10:05:45.019Z,11.27
2022-11-26T10:08:33.266Z,12.27
2022-11-26T10:11:09.862Z,12.20
2022-11-26T10:13:46.286Z,16.47
2022-11-26T10:16:26.511Z,12.60
2022-11-26T10:19:04.105Z,10.67
2022-11-26T10:21:58.155Z,13.47
2022-11-26T10:24:32.246Z,12.40
2022-11-26T10:27:05.650Z,17.33
2022-11-26T10:29:39.717Z,13.60
2022-11-26T10:32:17.531Z,12.80
2022-11-26T10:34:51.897Z,13.73
2022-11-26T10:37:24.246Z,12.40
2022-11-26T10:40:02.061Z,11.87
2022-11-26T10:42:42.742Z,17.50
2022-11-26T10:45:20.167Z,16.47
2022-11-26T10:47:48.479Z,13.37
2022-11-26T10:53:23.044Z,13.07
2022-11-26T10:55:53.305Z,16.63
2022-11-26T10:58:24.809Z,15.33
2022-11-26T11:01:00.024Z,13.60
2022-11-26T11:04:05.944Z,14.57
2022-11-26T11:06:39.851Z,15.73
2022-11-26T11:09:29.009Z,17.07
2022-11-26T11:12:21.990Z,14.20
2022-11-26T11:14:51.955Z,11.00
2022-11-26T11:17:36.586Z,18.17
2022-11-26T11:20:30.461Z,14.57
2022-11-26T11:23:03.696Z,14.17
2022-11-26T11:25:35.735Z,14.83
2022-11-26T11:28:12.280Z,12.70
2022-11-26T11:30:42.948Z,12.60
2022-11-26T11:33:20.192Z,16.63
2022-11-26T11:36:07.303Z,16.80
2022-11-26T11:38:48.886Z,12.63
2022-11-26T11:41:28.543Z,12.00
2022-11-26T11:44:13.336Z,11.67
2022-11-26T11:47:14.572Z,13.40
2022-11-26T11:49:58.681Z,15.07
2022-11-26T11:52:38.093Z,14.60
2022-11-26T11:55:20.494Z,12.03
2022-11-26T11:58:13.535Z,13.30
2022-11-26T12:00:50.979Z,16.93
2022-11-26T12:03:52.881Z,12.77
2022-11-26T12:06:36.742Z,12.37
2022-11-26T12:09:20.044Z,13.50
2022-11-26T12:11:57.469Z,13.93
2022-11-26T12:14:35.745Z,19.63
2022-11-26T12:17:13.946Z,16.87
2022-11-26T12:19:48.740Z,13.63
2022-11-26T12:22:21.766Z,15.37
2022-11-26T12:24:55.576Z,12.87
2022-11-26T12:27:32.804Z,17.07
2022-11-26T12:30:06.754Z,11.80
2022-11-26T12:32:40.979Z,10.17
2022-11-26T12:35:17.058Z,15.67
2022-11-26T12:37:46.742Z,10.70
2022-11-26T12:40:29.339Z,11.80
2022-11-26T12:43:04.963Z,12.03
2022-11-26T12:45:46.051Z,13.23
2022-11-26T12:48:28.939Z,14.17
2022-11-26T12:51:02.505Z,12.73
2022-11-26T12:53:42.862Z,11.77
2022-11-26T12:56:21.099Z,12.63
2022-11-26T12:59:00.458Z,11.63
2022-11-26T13:01:30.769Z,12.93
2022-11-26T13:04:22.034Z,13.07
2022-11-26T13:07:08.951Z,12.40
2022-11-26T13:09:54.550Z,10.13
2022-11-26T13:12:32.128Z,13.03
2022-11-26T13:15:10.818Z,12.17
2022-11-26T13:17:44.855Z,9.00
2022-11-26T13:20:44.592Z,13.60
2022-11-26T13:23:43.124Z,12.73
2022-11-26T13:26:39.242Z,9.50
2022-11-26T13:29:34.844Z,9.17
2022-11-26T13:32:34.116Z,8.77
2022-11-26T13:35:19.476Z,11.50
2022-11-26T13:38:16.529Z,9.97
2022-11-26T13:41:13.400Z,12.90
2022-11-26T13:44:33.418Z,15.17
2022-11-26T13:47:05.730Z,13.30
2022-11-26T13:49:39.022Z,10.07
2022-11-26T13:52:15.155Z,13.47
2022-11-26T13:54:51.160Z,9.97
2022-11-26T13:57:25.444Z,11.40
2022-11-26T13:59:56.651Z,10.40
2022-11-26T14:02:47.423Z,9.53
2022-11-26T14:05:17.537Z,10.13
2022-11-26T14:07:47.807Z,11.27
2022-11-26T14:10:44.356Z,15.27
2022-11-26T14:13:17.502Z,10.20
2022-11-26T14:16:00.128Z,11.70
2022-11-26T14:19:00.726Z,13.57
2022-11-26T14:21:31.174Z,10.50
2022-11-26T14:24:02.492Z,9.73
2022-11-26T14:26:37.339Z,10.63
2022-11-26T14:29:17.509Z,10.53
2022-11-26T14:31:52.135Z,9.90
2022-11-26T14:34:27.189Z,10.93
2022-11-26T14:36:58.708Z,12.03
2022-11-26T14:39:29.277Z,10.20
2022-11-26T14:42:05.507Z,12.57
2022-11-26T14:44:34.746Z,11.87
2022-11-26T14:47:12.375Z,10.10
2022-11-26T14:49:46.854Z,10.60
2022-11-26T14:52:23.119Z,10.03
2022-11-26T14:54:57.645Z,8.80
2022-11-26T14:57:31.872Z,9.97
2022-11-26T15:00:03.001Z,9.07
2022-11-26T15:02:32.941Z,8.97
2022-11-26T15:05:15.250Z,6.00
2022-11-26T15:07:43.988Z,6.53
2022-11-26T15:10:23.143Z,5.57
2022-11-26T15:12:53.745Z,7.57
2022-11-26T15:15:24.821Z,3.97
2022-11-26T15:17:57.778Z,4.83
2022-11-26T15:20:26.538Z,5.37
2022-11-26T15:22:57.508Z,6.03
2022-11-26T15:25:30.367Z,4.30
2022-11-26T15:28:01.217Z,4.43
2022-11-26T15:30:31.926Z,5.33
2022-11-26T15:33:03.448Z,5.20
2022-11-26T15:35:33.327Z,4.97
2022-11-26T15:38:01.993Z,6.27
2022-11-26T15:40:45.467Z,4.27
2022-11-26T15:43:22.816Z,3.77
2022-11-26T15:45:53.425Z,7.30
2022-11-26T15:48:36.355Z,9.90
2022-11-26T15:51:17.694Z,6.33
2022-11-26T15:53:49.250Z,4.47
2022-11-26T15:56:21.233Z,3.50
2022-11-26T15:58:53.704Z,4.87
2022-11-26T16:03:53.745Z,9.10
2022-11-26T16:06:34.596Z,5.27
2022-11-26T16:09:26.324Z,3.20
2022-11-26T16:12:01.799Z,7.33
2022-11-26T16:14:36.405Z,20.90
2022-11-26T16:17:11.322Z,18.00
2022-11-26T16:19:46.078Z,13.37
2022-11-26T16:22:17.850Z,16.30
2022-11-26T16:24:46.611Z,10.80
2022-11-26T16:27:30.496Z,7.43
2022-11-26T16:29:59.424Z,9.80
2022-11-26T16:32:27.706Z,13.47
2022-11-26T16:34:56.006Z,9.97
2022-11-26T16:37:26.922Z,9.13
2022-11-26T16:40:02.793Z,9.10
2022-11-26T16:42:33.628Z,12.07
2022-11-26T16:45:04.344Z,8.10
2022-11-26T16:47:36.123Z,7.47
2022-11-26T16:50:05.757Z,9.83
2022-11-26T16:52:36.472Z,8.87
2022-11-26T16:55:05.243Z,9.00
2022-11-26T16:57:35.000Z,9.27
2022-11-26T17:00:06.904Z,8.53
2022-11-26T17:02:35.474Z,8.10
2022-11-26T17:05:04.857Z,8.37
2022-11-26T17:07:40.517Z,10.83
2022-11-26T17:10:15.498Z,14.87
2022-11-26T17:12:45.586Z,14.63
2022-11-26T17:15:14.345Z,14.87
2022-11-26T17:17:43.279Z,13.70
2022-11-26T17:20:19.131Z,13.57
2022-11-26T17:22:48.015Z,20.90
2022-11-26T17:25:16.673Z,8.90
2022-11-26T17:27:47.313Z,7.90
2022-11-26T17:30:18.905Z,9.73
2022-11-26T17:32:47.436Z,12.87
2022-11-26T17:35:16.140Z,13.23
2022-11-26T17:37:44.831Z,9.00
2022-11-26T17:40:18.717Z,9.90
2022-11-26T17:42:48.864Z,6.50
2022-11-26T17:45:18.411Z,7.60
2022-11-26T17:47:47.446Z,9.70
2022-11-26T17:50:21.314Z,8.13
2022-11-26T17:52:50.645Z,8.63
2022-11-26T17:55:20.237Z,6.63
2022-11-26T17:57:50.391Z,21.80
2022-11-26T18:00:21.885Z,18.80
2022-11-26T18:02:50.289Z,11.80
2022-11-26T18:05:18.866Z,11.30
2022-11-26T18:07:47.693Z,11.40
2022-11-26T18:10:18.739Z,10.17
2022-11-26T18:12:47.164Z,8.20
2022-11-26T18:15:21.330Z,12.67
2022-11-26T18:17:51.527Z,11.03
2022-11-26T18:20:22.448Z,15.47
2022-11-26T18:22:52.854Z,14.70
2022-11-26T18:25:21.358Z,14.13
2022-11-26T18:27:49.820Z,12.10
2022-11-26T18:30:20.860Z,10.47
2022-11-26T18:32:49.270Z,9.50
2022-11-26T18:35:18.035Z,8.13
2022-11-26T18:37:46.345Z,6.33
2022-11-26T18:40:18.015Z,7.83
2022-11-26T18:42:46.832Z,8.60
2022-11-26T18:45:16.868Z,12.67
2022-11-26T18:47:46.549Z,10.07
2022-11-26T18:50:14.870Z,9.20
2022-11-26T18:52:43.236Z,5.80
2022-11-26T18:55:14.234Z,7.73
2022-11-26T18:57:42.562Z,9.83
2022-11-26T19:00:12.429Z,11.40
2022-11-26T19:02:40.752Z,14.00
2022-11-26T19:05:11.410Z,11.93
2022-11-26T19:07:40.330Z,11.63
2022-11-26T19:10:10.225Z,10.13
2022-11-26T19:12:38.645Z,15.87
2022-11-26T19:15:08.363Z,18.37
2022-11-26T19:17:36.707Z,13.40
2022-11-26T19:20:06.378Z,14.17
2022-11-26T19:22:36.139Z,8.03
2022-11-26T19:25:04.614Z,8.57
2022-11-26T19:27:32.969Z,8.47
2022-11-26T19:30:01.300Z,9.63
2022-11-26T19:32:29.931Z,7.80
2022-11-26T19:35:02.653Z,6.47
2022-11-26T19:37:35.417Z,7.93
2022-11-26T19:40:04.366Z,7.20
2022-11-26T19:42:32.759Z,7.63
2022-11-26T19:45:01.083Z,9.27
2022-11-26T19:47:29.377Z,10.23
2022-11-26T19:49:57.699Z,10.07
2022-11-26T19:52:25.960Z,10.63
2022-11-26T19:54:55.631Z,16.97
2022-11-26T19:57:24.139Z,27.97
2022-11-26T19:59:52.665Z,23.50
2022-11-26T20:02:20.986Z,23.00
2022-11-26T20:04:49.312Z,18.83
2022-11-26T20:07:17.843Z,15.87
2022-11-26T20:09:46.215Z,21.07
2022-11-26T20:12:15.992Z,15.00
2022-11-26T20:14:44.374Z,14.83
2022-11-26T20:17:12.912Z,13.80
2022-11-26T20:19:41.566Z,10.97
2022-11-26T20:22:10.326Z,18.17
2022-11-26T20:24:38.710Z,15.87
2022-11-26T20:27:07.120Z,14.27
2022-11-26T20:29:36.916Z,15.27
2022-11-26T20:32:05.470Z,16.93
2022-11-26T20:34:33.978Z,14.53
2022-11-26T20:37:03.466Z,15.10
2022-11-26T20:39:31.936Z,16.63
2022-11-26T20:42:00.237Z,16.03
2022-11-26T20:44:28.658Z,13.27
2022-11-26T20:46:58.330Z,15.87
2022-11-26T20:49:30.780Z,16.63
2022-11-26T20:52:01.939Z,16.30
2022-11-26T20:54:30.207Z,17.97
2022-11-26T20:56:58.674Z,17.37
2022-11-26T20:59:27.181Z,18.90
2022-11-26T21:01:56.987Z,16.63
2022-11-26T21:04:25.338Z,19.37
2022-11-26T21:06:53.642Z,17.33
2022-11-26T21:09:21.961Z,19.40
2022-11-26T21:11:50.229Z,18.10
2022-11-26T21:14:18.500Z,16.43
2022-11-26T21:16:46.814Z,17.83
2022-11-26T21:19:16.575Z,17.40
2022-11-26T21:21:44.799Z,17.27
2022-11-26T21:24:14.527Z,16.77
2022-11-26T21:26:42.763Z,15.43
2022-11-26T21:29:11.102Z,16.77
2022-11-26T21:31:40.140Z,17.10
2022-11-26T21:34:09.549Z,17.83
2022-11-26T21:36:39.287Z,18.40
2022-11-26T21:39:07.592Z,18.47
2022-11-26T21:41:35.883Z,16.73
2022-11-26T21:44:04.412Z,14.77
2022-11-26T21:46:37.813Z,13.30
2022-11-26T21:49:07.260Z,15.53
2022-11-26T21:51:35.614Z,17.30
2022-11-26T21:54:05.823Z,16.67
2022-11-26T21:56:34.488Z,14.43
2022-11-26T21:59:03.401Z,10.37
2022-11-26T22:04:12.093Z,9.93
2022-11-26T22:06:40.991Z,12.17
2022-11-26T22:09:11.181Z,11.23
2022-11-26T22:11:42.403Z,11.70
2022-11-26T22:14:14.799Z,12.53
2022-11-26T22:16:43.797Z,10.57
2022-11-26T22:19:12.133Z,8.20
2022-11-26T22:21:42.575Z,11.17
2022-11-26T22:24:16.883Z,18.57
2022-11-26T22:26:45.915Z,18.87
2022-11-26T22:29:16.874Z,18.63
2022-11-26T22:31:45.739Z,14.10
2022-11-26T22:34:16.026Z,14.47
2022-11-26T22:36:45.634Z,48.37
2022-11-26T22:39:18.157Z,17.17
2022-11-26T22:41:47.931Z,12.37
2022-11-26T22:44:17.305Z,13.73
2022-11-26T22:46:46.090Z,13.80
2022-11-26T22:49:17.807Z,11.00
2022-11-26T22:51:47.404Z,11.43
2022-11-26T22:54:19.175Z,12.77
2022-11-26T22:56:47.932Z,13.50
2022-11-26T22:59:16.274Z,11.27
2022-11-26T23:01:44.650Z,13.80
2022-11-26T23:04:13.241Z,11.40
2022-11-26T23:06:41.615Z,12.70
2022-11-26T23:09:13.406Z,11.37
2022-11-26T23:11:44.514Z,11.27
2022-11-26T23:14:12.961Z,11.07
2022-11-26T23:16:43.279Z,10.93
2022-11-26T23:19:15.225Z,13.87
2022-11-26T23:21:44.844Z,15.10
2022-11-26T23:24:15.417Z,18.40
2022-11-26T23:26:46.255Z,18.00
2022-11-26T23:29:15.236Z,18.57
2022-11-26T23:31:45.802Z,17.23
2022-11-26T23:34:14.966Z,14.03
2022-11-26T23:36:43.821Z,12.93
2022-11-26T23:39:13.696Z,15.40
2022-11-26T23:41:42.042Z,17.53
2022-11-26T23:44:11.786Z,16.63
2022-11-26T23:46:40.183Z,14.07
2022-11-26T23:49:08.541Z,14.97
2022-11-26T23:51:36.836Z,14.13
2022-11-26T23:54:05.460Z,10.73
2022-11-26T23:56:35.727Z,14.43
2022-11-26T23:59:05.607Z,13.27
